sensor_id;sensor_type;location;lat;lon;timestamp;P1;durP1;ratioP1;P2;durP2;ratioP2
41667;SDS011;27356;50.920;5.350;2023-12-22T00:01:40;11.60;;;1.30;;
41667;SDS011;27356;50.920;5.350;2023-12-22T00:04:06;12.50;;;2.03;;
41667;SDS011;27356;50.920;5.350;2023-12-22T00:06:32;15.52;;;1.80;;
41667;SDS011;27356;50.920;5.350;2023-12-22T00:08:58;15.27;;;1.60;;
41667;SDS011;27356;50.920;5.350;2023-12-22T00:11:23;14.50;;;2.05;;
41667;SDS011;27356;50.920;5.350;2023-12-22T00:13:49;14.23;;;1.85;;
41667;SDS011;27356;50.920;5.350;2023-12-22T00:16:15;17.88;;;2.05;;
41667;SDS011;27356;50.920;5.350;2023-12-22T00:18:41;18.50;;;2.22;;
41667;SDS011;27356;50.920;5.350;2023-12-22T00:21:10;17.10;;;2.70;;
41667;SDS011;27356;50.920;5.350;2023-12-22T00:23:36;15.20;;;1.50;;
41667;SDS011;27356;50.920;5.350;2023-12-22T00:26:03;15.77;;;2.30;;
41667;SDS011;27356;50.920;5.350;2023-12-22T00:28:30;21.00;;;2.15;;
41667;SDS011;27356;50.920;5.350;2023-12-22T00:30:57;16.65;;;1.73;;
41667;SDS011;27356;50.920;5.350;2023-12-22T00:33:23;21.42;;;4.18;;
41667;SDS011;27356;50.920;5.350;2023-12-22T00:35:50;17.85;;;2.47;;
41667;SDS011;27356;50.920;5.350;2023-12-22T00:38:16;18.33;;;2.72;;
41667;SDS011;27356;50.920;5.350;2023-12-22T00:40:42;13.45;;;2.25;;
41667;SDS011;27356;50.920;5.350;2023-12-22T00:43:08;18.77;;;1.83;;
41667;SDS011;27356;50.920;5.350;2023-12-22T00:45:33;16.17;;;2.30;;
41667;SDS011;27356;50.920;5.350;2023-12-22T00:47:59;19.08;;;3.17;;
41667;SDS011;27356;50.920;5.350;2023-12-22T00:50:25;20.13;;;3.28;;
41667;SDS011;27356;50.920;5.350;2023-12-22T00:52:50;19.83;;;2.70;;
41667;SDS011;27356;50.920;5.350;2023-12-22T00:55:16;15.18;;;2.60;;
41667;SDS011;27356;50.920;5.350;2023-12-22T00:57:42;20.08;;;3.15;;
41667;SDS011;27356;50.920;5.350;2023-12-22T01:00:08;11.82;;;1.95;;
41667;SDS011;27356;50.920;5.350;2023-12-22T01:02:37;28.38;;;3.15;;
41667;SDS011;27356;50.920;5.350;2023-12-22T01:05:03;17.17;;;2.53;;
41667;SDS011;27356;50.920;5.350;2023-12-22T01:07:29;15.23;;;2.00;;
41667;SDS011;27356;50.920;5.350;2023-12-22T01:09:55;11.32;;;1.63;;
41667;SDS011;27356;50.920;5.350;2023-12-22T01:12:26;10.50;;;1.92;;
41667;SDS011;27356;50.920;5.350;2023-12-22T01:14:53;6.13;;;1.48;;
41667;SDS011;27356;50.920;5.350;2023-12-22T01:17:18;9.75;;;1.90;;
41667;SDS011;27356;50.920;5.350;2023-12-22T01:19:44;14.70;;;1.60;;
41667;SDS011;27356;50.920;5.350;2023-12-22T01:22:10;9.48;;;1.58;;
41667;SDS011;27356;50.920;5.350;2023-12-22T01:24:36;11.32;;;1.83;;
41667;SDS011;27356;50.920;5.350;2023-12-22T01:27:07;9.18;;;1.58;;
41667;SDS011;27356;50.920;5.350;2023-12-22T01:29:34;8.75;;;1.67;;
41667;SDS011;27356;50.920;5.350;2023-12-22T01:32:00;13.25;;;1.55;;
41667;SDS011;27356;50.920;5.350;2023-12-22T01:34:26;8.43;;;1.60;;
41667;SDS011;27356;50.920;5.350;2023-12-22T01:36:51;7.22;;;1.60;;
41667;SDS011;27356;50.920;5.350;2023-12-22T01:39:17;15.10;;;1.95;;
41667;SDS011;27356;50.920;5.350;2023-12-22T01:41:43;13.02;;;1.60;;
41667;SDS011;27356;50.920;5.350;2023-12-22T01:44:08;8.80;;;1.50;;
41667;SDS011;27356;50.920;5.350;2023-12-22T01:46:34;13.90;;;1.90;;
41667;SDS011;27356;50.920;5.350;2023-12-22T01:49:00;10.50;;;1.73;;
41667;SDS011;27356;50.920;5.350;2023-12-22T01:51:28;19.65;;;2.33;;
41667;SDS011;27356;50.920;5.350;2023-12-22T01:53:55;10.50;;;1.95;;
41667;SDS011;27356;50.920;5.350;2023-12-22T01:56:20;10.05;;;1.90;;
41667;SDS011;27356;50.920;5.350;2023-12-22T01:58:46;12.45;;;1.77;;
41667;SDS011;27356;50.920;5.350;2023-12-22T02:01:12;11.43;;;1.27;;
41667;SDS011;27356;50.920;5.350;2023-12-22T02:03:38;10.65;;;2.13;;
41667;SDS011;27356;50.920;5.350;2023-12-22T02:06:05;17.58;;;3.15;;
41667;SDS011;27356;50.920;5.350;2023-12-22T02:08:33;9.25;;;2.10;;
41667;SDS011;27356;50.920;5.350;2023-12-22T02:11:01;12.07;;;1.85;;
41667;SDS011;27356;50.920;5.350;2023-12-22T02:13:27;19.17;;;2.40;;
41667;SDS011;27356;50.920;5.350;2023-12-22T02:15:56;23.60;;;3.78;;
41667;SDS011;27356;50.920;5.350;2023-12-22T02:18:27;11.10;;;2.13;;
41667;SDS011;27356;50.920;5.350;2023-12-22T02:21:03;17.45;;;2.78;;
41667;SDS011;27356;50.920;5.350;2023-12-22T02:23:29;17.77;;;1.88;;
41667;SDS011;27356;50.920;5.350;2023-12-22T02:25:56;13.43;;;1.95;;
41667;SDS011;27356;50.920;5.350;2023-12-22T02:28:29;15.27;;;2.10;;
41667;SDS011;27356;50.920;5.350;2023-12-22T02:33:37;18.73;;;2.50;;
41667;SDS011;27356;50.920;5.350;2023-12-22T02:36:06;10.40;;;2.60;;
41667;SDS011;27356;50.920;5.350;2023-12-22T02:38:33;19.08;;;2.28;;
41667;SDS011;27356;50.920;5.350;2023-12-22T02:41:01;16.17;;;2.00;;
41667;SDS011;27356;50.920;5.350;2023-12-22T02:43:27;20.67;;;1.85;;
41667;SDS011;27356;50.920;5.350;2023-12-22T02:45:53;13.48;;;1.77;;
41667;SDS011;27356;50.920;5.350;2023-12-22T02:48:19;18.48;;;2.08;;
41667;SDS011;27356;50.920;5.350;2023-12-22T02:50:45;15.25;;;2.30;;
41667;SDS011;27356;50.920;5.350;2023-12-22T02:53:10;17.65;;;2.22;;
41667;SDS011;27356;50.920;5.350;2023-12-22T02:55:36;12.85;;;1.83;;
41667;SDS011;27356;50.920;5.350;2023-12-22T02:58:02;21.10;;;2.53;;
41667;SDS011;27356;50.920;5.350;2023-12-22T03:00:27;18.45;;;2.22;;
41667;SDS011;27356;50.920;5.350;2023-12-22T03:02:53;20.63;;;3.33;;
41667;SDS011;27356;50.920;5.350;2023-12-22T03:05:19;20.45;;;2.22;;
41667;SDS011;27356;50.920;5.350;2023-12-22T03:07:44;15.52;;;1.95;;
41667;SDS011;27356;50.920;5.350;2023-12-22T03:10:10;23.70;;;2.65;;
41667;SDS011;27356;50.920;5.350;2023-12-22T03:12:36;16.58;;;1.67;;
41667;SDS011;27356;50.920;5.350;2023-12-22T03:15:01;24.38;;;3.17;;
41667;SDS011;27356;50.920;5.350;2023-12-22T03:17:27;16.80;;;2.17;;
41667;SDS011;27356;50.920;5.350;2023-12-22T03:19:53;15.93;;;2.10;;
41667;SDS011;27356;50.920;5.350;2023-12-22T03:22:19;16.60;;;3.10;;
41667;SDS011;27356;50.920;5.350;2023-12-22T03:24:44;13.15;;;2.05;;
41667;SDS011;27356;50.920;5.350;2023-12-22T03:27:10;19.85;;;3.20;;
41667;SDS011;27356;50.920;5.350;2023-12-22T03:29:41;17.15;;;2.05;;
41667;SDS011;27356;50.920;5.350;2023-12-22T03:32:07;17.88;;;2.25;;
41667;SDS011;27356;50.920;5.350;2023-12-22T03:34:33;18.38;;;1.75;;
41667;SDS011;27356;50.920;5.350;2023-12-22T03:36:58;19.85;;;2.13;;
41667;SDS011;27356;50.920;5.350;2023-12-22T03:39:24;10.70;;;1.85;;
41667;SDS011;27356;50.920;5.350;2023-12-22T03:41:50;12.45;;;1.75;;
41667;SDS011;27356;50.920;5.350;2023-12-22T03:44:15;15.13;;;3.28;;
41667;SDS011;27356;50.920;5.350;2023-12-22T03:46:42;15.25;;;1.70;;
41667;SDS011;27356;50.920;5.350;2023-12-22T03:49:08;11.30;;;1.80;;
41667;SDS011;27356;50.920;5.350;2023-12-22T03:51:33;12.13;;;2.08;;
41667;SDS011;27356;50.920;5.350;2023-12-22T03:53:59;9.70;;;1.63;;
41667;SDS011;27356;50.920;5.350;2023-12-22T03:56:25;18.50;;;2.10;;
41667;SDS011;27356;50.920;5.350;2023-12-22T03:58:51;11.75;;;1.52;;
41667;SDS011;27356;50.920;5.350;2023-12-22T04:01:18;13.82;;;1.58;;
41667;SDS011;27356;50.920;5.350;2023-12-22T04:03:44;8.73;;;1.45;;
41667;SDS011;27356;50.920;5.350;2023-12-22T04:06:09;12.38;;;2.08;;
41667;SDS011;27356;50.920;5.350;2023-12-22T04:08:35;9.20;;;2.10;;
41667;SDS011;27356;50.920;5.350;2023-12-22T04:11:00;14.43;;;2.50;;
41667;SDS011;27356;50.920;5.350;2023-12-22T04:13:26;10.60;;;1.35;;
41667;SDS011;27356;50.920;5.350;2023-12-22T04:15:52;7.68;;;1.30;;
41667;SDS011;27356;50.920;5.350;2023-12-22T04:18:17;10.95;;;1.52;;
41667;SDS011;27356;50.920;5.350;2023-12-22T04:20:43;16.30;;;1.92;;
41667;SDS011;27356;50.920;5.350;2023-12-22T04:23:09;17.83;;;1.70;;
41667;SDS011;27356;50.920;5.350;2023-12-22T04:25:34;12.23;;;1.67;;
41667;SDS011;27356;50.920;5.350;2023-12-22T04:28:01;13.65;;;1.63;;
41667;SDS011;27356;50.920;5.350;2023-12-22T04:30:27;6.72;;;1.40;;
41667;SDS011;27356;50.920;5.350;2023-12-22T04:32:53;9.25;;;2.03;;
41667;SDS011;27356;50.920;5.350;2023-12-22T04:35:18;17.50;;;2.05;;
41667;SDS011;27356;50.920;5.350;2023-12-22T04:37:44;12.32;;;1.73;;
41667;SDS011;27356;50.920;5.350;2023-12-22T04:40:10;9.40;;;1.42;;
41667;SDS011;27356;50.920;5.350;2023-12-22T04:42:36;19.17;;;2.72;;
41667;SDS011;27356;50.920;5.350;2023-12-22T04:45:02;16.85;;;2.03;;
41667;SDS011;27356;50.920;5.350;2023-12-22T04:47:28;14.55;;;1.98;;
41667;SDS011;27356;50.920;5.350;2023-12-22T04:49:53;19.05;;;2.90;;
41667;SDS011;27356;50.920;5.350;2023-12-22T04:52:25;17.75;;;2.88;;
41667;SDS011;27356;50.920;5.350;2023-12-22T04:54:51;20.52;;;1.98;;
41667;SDS011;27356;50.920;5.350;2023-12-22T04:57:16;12.70;;;2.00;;
41667;SDS011;27356;50.920;5.350;2023-12-22T04:59:42;13.95;;;2.60;;
41667;SDS011;27356;50.920;5.350;2023-12-22T05:02:08;19.00;;;3.38;;
41667;SDS011;27356;50.920;5.350;2023-12-22T05:04:34;22.52;;;3.38;;
41667;SDS011;27356;50.920;5.350;2023-12-22T05:06:59;20.33;;;4.38;;
41667;SDS011;27356;50.920;5.350;2023-12-22T05:09:26;18.30;;;2.38;;
41667;SDS011;27356;50.920;5.350;2023-12-22T05:11:53;19.00;;;2.60;;
41667;SDS011;27356;50.920;5.350;2023-12-22T05:14:19;20.25;;;2.65;;
41667;SDS011;27356;50.920;5.350;2023-12-22T05:16:44;13.70;;;2.42;;
41667;SDS011;27356;50.920;5.350;2023-12-22T05:19:10;18.52;;;2.75;;
41667;SDS011;27356;50.920;5.350;2023-12-22T05:21:36;20.67;;;3.67;;
41667;SDS011;27356;50.920;5.350;2023-12-22T05:24:02;18.83;;;2.50;;
41667;SDS011;27356;50.920;5.350;2023-12-22T05:26:27;18.70;;;2.10;;
41667;SDS011;27356;50.920;5.350;2023-12-22T05:28:55;17.83;;;2.83;;
41667;SDS011;27356;50.920;5.350;2023-12-22T05:31:21;15.50;;;2.83;;
41667;SDS011;27356;50.920;5.350;2023-12-22T05:33:47;27.23;;;3.72;;
41667;SDS011;27356;50.920;5.350;2023-12-22T05:36:13;20.50;;;2.95;;
41667;SDS011;27356;50.920;5.350;2023-12-22T05:38:38;25.48;;;3.13;;
41667;SDS011;27356;50.920;5.350;2023-12-22T05:41:04;25.42;;;2.90;;
41667;SDS011;27356;50.920;5.350;2023-12-22T05:43:33;22.48;;;3.78;;
41667;SDS011;27356;50.920;5.350;2023-12-22T05:45:59;23.25;;;3.53;;
41667;SDS011;27356;50.920;5.350;2023-12-22T05:48:25;21.65;;;2.60;;
41667;SDS011;27356;50.920;5.350;2023-12-22T05:50:52;24.05;;;3.00;;
41667;SDS011;27356;50.920;5.350;2023-12-22T05:53:18;19.23;;;3.03;;
41667;SDS011;27356;50.920;5.350;2023-12-22T05:55:44;25.55;;;3.25;;
41667;SDS011;27356;50.920;5.350;2023-12-22T05:58:10;28.23;;;3.78;;
41667;SDS011;27356;50.920;5.350;2023-12-22T06:00:35;23.90;;;3.95;;
41667;SDS011;27356;50.920;5.350;2023-12-22T06:03:01;24.45;;;3.60;;
41667;SDS011;27356;50.920;5.350;2023-12-22T06:05:27;27.92;;;3.15;;
41667;SDS011;27356;50.920;5.350;2023-12-22T06:07:53;23.45;;;3.53;;
41667;SDS011;27356;50.920;5.350;2023-12-22T06:10:18;22.48;;;2.55;;
41667;SDS011;27356;50.920;5.350;2023-12-22T06:12:44;30.73;;;4.68;;
41667;SDS011;27356;50.920;5.350;2023-12-22T06:15:10;34.78;;;4.72;;
41667;SDS011;27356;50.920;5.350;2023-12-22T06:17:35;32.03;;;5.00;;
41667;SDS011;27356;50.920;5.350;2023-12-22T06:20:01;28.48;;;3.72;;
41667;SDS011;27356;50.920;5.350;2023-12-22T06:22:27;18.52;;;2.92;;
41667;SDS011;27356;50.920;5.350;2023-12-22T06:24:52;31.13;;;4.18;;
41667;SDS011;27356;50.920;5.350;2023-12-22T06:27:18;34.25;;;5.43;;
41667;SDS011;27356;50.920;5.350;2023-12-22T06:29:44;25.45;;;4.07;;
41667;SDS011;27356;50.920;5.350;2023-12-22T06:32:09;27.63;;;5.15;;
41667;SDS011;27356;50.920;5.350;2023-12-22T06:34:37;33.95;;;3.58;;
41667;SDS011;27356;50.920;5.350;2023-12-22T06:37:02;29.33;;;3.80;;
41667;SDS011;27356;50.920;5.350;2023-12-22T06:39:28;22.25;;;3.35;;
41667;SDS011;27356;50.920;5.350;2023-12-22T06:41:54;23.77;;;3.40;;
41667;SDS011;27356;50.920;5.350;2023-12-22T06:44:19;26.27;;;3.83;;
41667;SDS011;27356;50.920;5.350;2023-12-22T06:46:45;31.83;;;3.70;;
41667;SDS011;27356;50.920;5.350;2023-12-22T06:49:11;32.53;;;3.78;;
41667;SDS011;27356;50.920;5.350;2023-12-22T06:51:37;23.35;;;4.10;;
41667;SDS011;27356;50.920;5.350;2023-12-22T06:54:03;27.98;;;3.50;;
41667;SDS011;27356;50.920;5.350;2023-12-22T06:56:30;33.03;;;4.05;;
41667;SDS011;27356;50.920;5.350;2023-12-22T06:58:57;25.23;;;3.78;;
41667;SDS011;27356;50.920;5.350;2023-12-22T07:01:25;20.95;;;3.05;;
41667;SDS011;27356;50.920;5.350;2023-12-22T07:03:52;24.58;;;2.78;;
41667;SDS011;27356;50.920;5.350;2023-12-22T07:06:18;34.55;;;4.22;;
41667;SDS011;27356;50.920;5.350;2023-12-22T07:11:40;30.25;;;3.13;;
41667;SDS011;27356;50.920;5.350;2023-12-22T07:14:09;30.00;;;3.67;;
41667;SDS011;27356;50.920;5.350;2023-12-22T07:16:35;24.20;;;4.70;;
41667;SDS011;27356;50.920;5.350;2023-12-22T07:19:02;22.13;;;3.55;;
41667;SDS011;27356;50.920;5.350;2023-12-22T07:21:28;23.45;;;3.53;;
41667;SDS011;27356;50.920;5.350;2023-12-22T07:23:54;22.60;;;3.33;;
41667;SDS011;27356;50.920;5.350;2023-12-22T07:26:20;22.42;;;4.18;;
41667;SDS011;27356;50.920;5.350;2023-12-22T07:28:49;21.85;;;3.28;;
41667;SDS011;27356;50.920;5.350;2023-12-22T07:31:15;25.35;;;4.20;;
41667;SDS011;27356;50.920;5.350;2023-12-22T07:33:41;27.88;;;3.00;;
41667;SDS011;27356;50.920;5.350;2023-12-22T07:36:07;16.77;;;3.03;;
41667;SDS011;27356;50.920;5.350;2023-12-22T07:38:33;25.35;;;4.45;;
41667;SDS011;27356;50.920;5.350;2023-12-22T07:40:59;28.15;;;3.78;;
41667;SDS011;27356;50.920;5.350;2023-12-22T07:43:25;20.40;;;3.42;;
41667;SDS011;27356;50.920;5.350;2023-12-22T07:45:51;16.65;;;2.67;;
41667;SDS011;27356;50.920;5.350;2023-12-22T07:48:17;24.50;;;4.43;;
41667;SDS011;27356;50.920;5.350;2023-12-22T07:50:43;15.00;;;3.05;;
41667;SDS011;27356;50.920;5.350;2023-12-22T07:53:09;21.13;;;3.10;;
41667;SDS011;27356;50.920;5.350;2023-12-22T07:55:35;27.30;;;3.40;;
41667;SDS011;27356;50.920;5.350;2023-12-22T07:58:00;25.17;;;5.28;;
41667;SDS011;27356;50.920;5.350;2023-12-22T08:00:26;16.02;;;2.22;;
41667;SDS011;27356;50.920;5.350;2023-12-22T08:02:53;11.10;;;2.00;;
41667;SDS011;27356;50.920;5.350;2023-12-22T08:05:18;10.07;;;2.08;;
41667;SDS011;27356;50.920;5.350;2023-12-22T08:07:44;14.50;;;1.80;;
41667;SDS011;27356;50.920;5.350;2023-12-22T08:10:10;12.98;;;2.55;;
41667;SDS011;27356;50.920;5.350;2023-12-22T08:12:36;11.77;;;1.98;;
41667;SDS011;27356;50.920;5.350;2023-12-22T08:15:02;14.32;;;2.28;;
41667;SDS011;27356;50.920;5.350;2023-12-22T08:17:28;8.60;;;1.90;;
41667;SDS011;27356;50.920;5.350;2023-12-22T08:19:54;14.32;;;1.83;;
41667;SDS011;27356;50.920;5.350;2023-12-22T08:22:21;11.35;;;2.08;;
41667;SDS011;27356;50.920;5.350;2023-12-22T08:24:47;11.20;;;2.00;;
41667;SDS011;27356;50.920;5.350;2023-12-22T08:27:13;16.33;;;2.08;;
41667;SDS011;27356;50.920;5.350;2023-12-22T08:29:39;15.77;;;2.17;;
41667;SDS011;27356;50.920;5.350;2023-12-22T08:32:05;11.48;;;1.80;;
41667;SDS011;27356;50.920;5.350;2023-12-22T08:34:31;14.50;;;2.60;;
41667;SDS011;27356;50.920;5.350;2023-12-22T08:36:57;7.97;;;1.70;;
41667;SDS011;27356;50.920;5.350;2023-12-22T08:39:22;14.57;;;2.03;;
41667;SDS011;27356;50.920;5.350;2023-12-22T08:41:51;8.18;;;1.90;;
41667;SDS011;27356;50.920;5.350;2023-12-22T08:44:18;18.77;;;2.60;;
41667;SDS011;27356;50.920;5.350;2023-12-22T08:46:44;12.18;;;2.63;;
41667;SDS011;27356;50.920;5.350;2023-12-22T08:49:10;9.65;;;2.13;;
41667;SDS011;27356;50.920;5.350;2023-12-22T08:51:36;15.38;;;3.70;;
41667;SDS011;27356;50.920;5.350;2023-12-22T08:54:01;9.63;;;2.78;;
41667;SDS011;27356;50.920;5.350;2023-12-22T08:56:29;7.75;;;2.22;;
41667;SDS011;27356;50.920;5.350;2023-12-22T08:58:55;9.80;;;2.00;;
41667;SDS011;27356;50.920;5.350;2023-12-22T09:01:23;10.52;;;2.30;;
41667;SDS011;27356;50.920;5.350;2023-12-22T09:03:50;6.60;;;2.25;;
41667;SDS011;27356;50.920;5.350;2023-12-22T09:06:18;9.00;;;2.17;;
41667;SDS011;27356;50.920;5.350;2023-12-22T09:08:45;13.95;;;2.55;;
41667;SDS011;27356;50.920;5.350;2023-12-22T09:11:11;13.80;;;2.83;;
41667;SDS011;27356;50.920;5.350;2023-12-22T09:13:37;8.50;;;1.90;;
41667;SDS011;27356;50.920;5.350;2023-12-22T09:16:03;7.35;;;1.75;;
41667;SDS011;27356;50.920;5.350;2023-12-22T09:18:30;7.68;;;1.30;;
41667;SDS011;27356;50.920;5.350;2023-12-22T09:20:56;7.05;;;1.30;;
41667;SDS011;27356;50.920;5.350;2023-12-22T09:23:23;5.53;;;1.55;;
41667;SDS011;27356;50.920;5.350;2023-12-22T09:25:48;7.88;;;3.92;;
41667;SDS011;27356;50.920;5.350;2023-12-22T09:28:14;7.05;;;1.67;;
41667;SDS011;27356;50.920;5.350;2023-12-22T09:30:40;3.70;;;1.63;;
41667;SDS011;27356;50.920;5.350;2023-12-22T09:33:07;6.30;;;1.60;;
41667;SDS011;27356;50.920;5.350;2023-12-22T09:35:36;6.28;;;2.00;;
41667;SDS011;27356;50.920;5.350;2023-12-22T09:38:03;3.90;;;1.73;;
41667;SDS011;27356;50.920;5.350;2023-12-22T09:40:29;4.57;;;1.75;;
41667;SDS011;27356;50.920;5.350;2023-12-22T09:42:55;4.63;;;1.92;;
41667;SDS011;27356;50.920;5.350;2023-12-22T09:45:23;5.47;;;1.90;;
41667;SDS011;27356;50.920;5.350;2023-12-22T09:47:49;5.90;;;1.73;;
41667;SDS011;27356;50.920;5.350;2023-12-22T09:50:17;3.38;;;1.90;;
41667;SDS011;27356;50.920;5.350;2023-12-22T09:52:43;5.15;;;2.00;;
41667;SDS011;27356;50.920;5.350;2023-12-22T09:55:09;2.97;;;1.80;;
41667;SDS011;27356;50.920;5.350;2023-12-22T09:57:37;4.35;;;2.10;;
41667;SDS011;27356;50.920;5.350;2023-12-22T10:00:05;4.95;;;1.80;;
41667;SDS011;27356;50.920;5.350;2023-12-22T10:02:33;1.50;;;1.40;;
41667;SDS011;27356;50.920;5.350;2023-12-22T10:05:01;1.77;;;1.42;;
41667;SDS011;27356;50.920;5.350;2023-12-22T10:07:27;2.80;;;1.60;;
41667;SDS011;27356;50.920;5.350;2023-12-22T10:09:55;2.45;;;1.40;;
41667;SDS011;27356;50.920;5.350;2023-12-22T10:12:22;2.42;;;1.73;;
41667;SDS011;27356;50.920;5.350;2023-12-22T10:14:49;2.70;;;1.35;;
41667;SDS011;27356;50.920;5.350;2023-12-22T10:17:16;2.88;;;1.58;;
41667;SDS011;27356;50.920;5.350;2023-12-22T10:19:42;4.47;;;2.92;;
41667;SDS011;27356;50.920;5.350;2023-12-22T10:22:08;1.55;;;1.30;;
41667;SDS011;27356;50.920;5.350;2023-12-22T10:24:41;2.83;;;1.38;;
41667;SDS011;27356;50.920;5.350;2023-12-22T10:27:15;3.50;;;1.20;;
41667;SDS011;27356;50.920;5.350;2023-12-22T10:29:53;3.17;;;1.20;;
41667;SDS011;27356;50.920;5.350;2023-12-22T10:32:20;1.70;;;1.20;;
41667;SDS011;27356;50.920;5.350;2023-12-22T10:34:47;4.00;;;1.30;;
41667;SDS011;27356;50.920;5.350;2023-12-22T10:37:14;6.93;;;1.38;;
41667;SDS011;27356;50.920;5.350;2023-12-22T10:39:40;6.28;;;1.30;;
41667;SDS011;27356;50.920;5.350;2023-12-22T10:42:06;2.50;;;1.38;;
41667;SDS011;27356;50.920;5.350;2023-12-22T10:44:34;4.45;;;1.27;;
41667;SDS011;27356;50.920;5.350;2023-12-22T10:47:00;3.00;;;1.30;;
41667;SDS011;27356;50.920;5.350;2023-12-22T10:49:28;5.53;;;1.27;;
41667;SDS011;27356;50.920;5.350;2023-12-22T10:51:56;5.25;;;1.67;;
41667;SDS011;27356;50.920;5.350;2023-12-22T10:54:22;2.63;;;1.30;;
41667;SDS011;27356;50.920;5.350;2023-12-22T10:56:48;2.42;;;1.35;;
41667;SDS011;27356;50.920;5.350;2023-12-22T10:59:18;5.03;;;1.98;;
41667;SDS011;27356;50.920;5.350;2023-12-22T11:01:48;4.60;;;1.10;;
41667;SDS011;27356;50.920;5.350;2023-12-22T11:06:50;5.20;;;1.45;;
41667;SDS011;27356;50.920;5.350;2023-12-22T11:10:02;5.10;;;1.10;;
41667;SDS011;27356;50.920;5.350;2023-12-22T11:12:31;4.78;;;1.20;;
41667;SDS011;27356;50.920;5.350;2023-12-22T11:15:46;3.17;;;1.15;;
41667;SDS011;27356;50.920;5.350;2023-12-22T11:27:13;3.85;;;1.17;;
41667;SDS011;27356;50.920;5.350;2023-12-22T11:59:35;3.47;;;1.15;;
41667;SDS011;27356;50.920;5.350;2023-12-22T13:09:46;6.35;;;0.98;;
41667;SDS011;27356;50.920;5.350;2023-12-22T13:12:12;3.13;;;0.73;;
41667;SDS011;27356;50.920;5.350;2023-12-22T13:14:39;2.50;;;0.57;;
41667;SDS011;27356;50.920;5.350;2023-12-22T13:17:05;4.53;;;0.73;;
41667;SDS011;27356;50.920;5.350;2023-12-22T13:19:32;4.75;;;0.75;;
41667;SDS011;27356;50.920;5.350;2023-12-22T13:22:00;3.78;;;0.57;;
41667;SDS011;27356;50.920;5.350;2023-12-22T13:24:29;10.38;;;1.40;;
41667;SDS011;27356;50.920;5.350;2023-12-22T13:26:59;5.57;;;0.82;;
41667;SDS011;27356;50.920;5.350;2023-12-22T13:29:28;5.50;;;0.55;;
41667;SDS011;27356;50.920;5.350;2023-12-22T13:31:55;5.03;;;0.50;;
41667;SDS011;27356;50.920;5.350;2023-12-22T13:34:22;2.38;;;0.50;;
41667;SDS011;27356;50.920;5.350;2023-12-22T13:36:49;3.95;;;1.27;;
41667;SDS011;27356;50.920;5.350;2023-12-22T13:39:15;8.32;;;0.85;;
41667;SDS011;27356;50.920;5.350;2023-12-22T13:41:42;8.05;;;1.00;;
41667;SDS011;27356;50.920;5.350;2023-12-22T13:47:03;8.80;;;1.42;;
41667;SDS011;27356;50.920;5.350;2023-12-22T13:49:33;2.92;;;0.68;;
41667;SDS011;27356;50.920;5.350;2023-12-22T13:51:59;3.20;;;0.60;;
41667;SDS011;27356;50.920;5.350;2023-12-22T13:54:31;6.28;;;0.75;;
41667;SDS011;27356;50.920;5.350;2023-12-22T13:56:58;2.90;;;0.70;;
41667;SDS011;27356;50.920;5.350;2023-12-22T13:59:33;2.80;;;0.70;;
41667;SDS011;27356;50.920;5.350;2023-12-22T14:02:00;2.55;;;0.40;;
41667;SDS011;27356;50.920;5.350;2023-12-22T14:04:27;3.25;;;0.80;;
41667;SDS011;27356;50.920;5.350;2023-12-22T14:06:57;5.65;;;0.77;;
41667;SDS011;27356;50.920;5.350;2023-12-22T14:09:22;6.93;;;1.15;;
41667;SDS011;27356;50.920;5.350;2023-12-22T14:11:49;5.82;;;0.80;;
41667;SDS011;27356;50.920;5.350;2023-12-22T14:14:15;6.22;;;0.75;;
41667;SDS011;27356;50.920;5.350;2023-12-22T14:16:42;5.00;;;0.80;;
41667;SDS011;27356;50.920;5.350;2023-12-22T14:19:08;7.43;;;0.80;;
41667;SDS011;27356;50.920;5.350;2023-12-22T14:21:33;5.30;;;0.82;;
41667;SDS011;27356;50.920;5.350;2023-12-22T14:23:59;6.78;;;1.42;;
41667;SDS011;27356;50.920;5.350;2023-12-22T14:26:25;4.50;;;0.73;;
41667;SDS011;27356;50.920;5.350;2023-12-22T14:28:50;12.30;;;1.65;;
41667;SDS011;27356;50.920;5.350;2023-12-22T14:31:17;5.82;;;0.88;;
41667;SDS011;27356;50.920;5.350;2023-12-22T14:33:43;4.15;;;0.93;;
41667;SDS011;27356;50.920;5.350;2023-12-22T14:36:09;2.90;;;0.40;;
41667;SDS011;27356;50.920;5.350;2023-12-22T14:38:34;4.35;;;0.77;;
41667;SDS011;27356;50.920;5.350;2023-12-22T14:41:00;1.77;;;0.55;;
41667;SDS011;27356;50.920;5.350;2023-12-22T14:43:26;4.80;;;0.63;;
41667;SDS011;27356;50.920;5.350;2023-12-22T14:45:51;6.32;;;0.90;;
41667;SDS011;27356;50.920;5.350;2023-12-22T14:48:17;6.25;;;0.65;;
41667;SDS011;27356;50.920;5.350;2023-12-22T14:50:43;4.25;;;0.88;;
41667;SDS011;27356;50.920;5.350;2023-12-22T14:53:08;4.30;;;0.90;;
41667;SDS011;27356;50.920;5.350;2023-12-22T14:55:34;2.08;;;0.98;;
41667;SDS011;27356;50.920;5.350;2023-12-22T14:58:01;5.90;;;0.98;;
41667;SDS011;27356;50.920;5.350;2023-12-22T15:00:28;3.88;;;0.70;;
41667;SDS011;27356;50.920;5.350;2023-12-22T15:02:54;5.00;;;0.50;;
41667;SDS011;27356;50.920;5.350;2023-12-22T15:05:19;8.32;;;1.13;;
41667;SDS011;27356;50.920;5.350;2023-12-22T15:07:46;2.67;;;0.60;;
41667;SDS011;27356;50.920;5.350;2023-12-22T15:10:12;5.90;;;0.73;;
41667;SDS011;27356;50.920;5.350;2023-12-22T15:12:37;3.58;;;0.80;;
41667;SDS011;27356;50.920;5.350;2023-12-22T15:15:07;3.40;;;0.60;;
41667;SDS011;27356;50.920;5.350;2023-12-22T15:17:33;9.88;;;1.13;;
41667;SDS011;27356;50.920;5.350;2023-12-22T15:19:59;2.85;;;0.60;;
41667;SDS011;27356;50.920;5.350;2023-12-22T15:22:25;4.22;;;0.80;;
41667;SDS011;27356;50.920;5.350;2023-12-22T15:24:52;6.78;;;1.08;;
41667;SDS011;27356;50.920;5.350;2023-12-22T15:27:17;6.18;;;1.30;;
41667;SDS011;27356;50.920;5.350;2023-12-22T15:29:44;4.97;;;0.77;;
41667;SDS011;27356;50.920;5.350;2023-12-22T15:32:11;6.32;;;0.73;;
41667;SDS011;27356;50.920;5.350;2023-12-22T15:34:36;8.75;;;0.77;;
41667;SDS011;27356;50.920;5.350;2023-12-22T15:37:02;14.43;;;5.75;;
41667;SDS011;27356;50.920;5.350;2023-12-22T15:39:28;7.45;;;1.58;;
41667;SDS011;27356;50.920;5.350;2023-12-22T15:41:56;6.25;;;1.00;;
41667;SDS011;27356;50.920;5.350;2023-12-22T15:44:22;5.70;;;0.88;;
41667;SDS011;27356;50.920;5.350;2023-12-22T15:46:47;3.42;;;0.70;;
41667;SDS011;27356;50.920;5.350;2023-12-22T15:49:13;3.55;;;0.70;;
41667;SDS011;27356;50.920;5.350;2023-12-22T15:51:39;5.68;;;1.40;;
41667;SDS011;27356;50.920;5.350;2023-12-22T15:54:04;10.98;;;2.70;;
41667;SDS011;27356;50.920;5.350;2023-12-22T15:56:30;8.68;;;2.17;;
41667;SDS011;27356;50.920;5.350;2023-12-22T15:58:59;3.97;;;1.10;;
41667;SDS011;27356;50.920;5.350;2023-12-22T16:01:27;4.97;;;0.80;;
41667;SDS011;27356;50.920;5.350;2023-12-22T16:03:53;4.07;;;0.98;;
41667;SDS011;27356;50.920;5.350;2023-12-22T16:06:18;7.35;;;0.90;;
41667;SDS011;27356;50.920;5.350;2023-12-22T16:08:44;6.65;;;0.93;;
41667;SDS011;27356;50.920;5.350;2023-12-22T16:11:10;4.75;;;0.90;;
41667;SDS011;27356;50.920;5.350;2023-12-22T16:13:35;9.00;;;0.70;;
41667;SDS011;27356;50.920;5.350;2023-12-22T16:16:01;4.80;;;1.52;;
41667;SDS011;27356;50.920;5.350;2023-12-22T16:18:27;4.32;;;1.02;;
41667;SDS011;27356;50.920;5.350;2023-12-22T16:20:53;3.85;;;0.95;;
41667;SDS011;27356;50.920;5.350;2023-12-22T16:23:19;8.93;;;1.65;;
41667;SDS011;27356;50.920;5.350;2023-12-22T16:25:49;4.32;;;0.70;;
41667;SDS011;27356;50.920;5.350;2023-12-22T16:28:21;6.45;;;0.80;;
41667;SDS011;27356;50.920;5.350;2023-12-22T16:30:47;5.50;;;1.08;;
41667;SDS011;27356;50.920;5.350;2023-12-22T16:33:13;9.20;;;1.13;;
41667;SDS011;27356;50.920;5.350;2023-12-22T16:35:40;5.00;;;0.95;;